createdAt,value
2019-02-08T00:01:25.227Z,92.10
2019-02-08T00:03:54.636Z,91.90
2019-02-08T00:06:24.223Z,91.90
2019-02-08T00:08:53.710Z,91.90
2019-02-08T00:11:23.236Z,91.90
2019-02-08T00:13:52.756Z,92.00
2019-02-08T00:16:22.321Z,92.00
2019-02-08T00:18:51.747Z,92.00
2019-02-08T00:21:21.130Z,92.20
2019-02-08T00:23:50.609Z,92.20
2019-02-08T00:26:20.024Z,92.20
2019-02-08T00:28:49.533Z,92.20
2019-02-08T00:31:18.982Z,92.30
2019-02-08T00:33:48.460Z,92.30
2019-02-08T00:36:17.911Z,92.30
2019-02-08T00:38:47.271Z,92.30
2019-02-08T00:41:16.644Z,92.30
2019-02-08T00:43:46.047Z,92.30
2019-02-08T00:46:15.613Z,92.20
2019-02-08T00:48:45.339Z,92.20
2019-02-08T00:51:14.879Z,92.20
2019-02-08T00:53:44.462Z,92.10
2019-02-08T00:56:14.139Z,92.10
2019-02-08T00:58:46.599Z,92.00
2019-02-08T01:01:16.076Z,91.90
2019-02-08T01:03:46.227Z,91.80
2019-02-08T01:06:15.859Z,91.80
2019-02-08T01:08:45.552Z,91.80
2019-02-08T01:11:15.144Z,91.80
2019-02-08T01:13:44.567Z,92.10
2019-02-08T01:16:14.034Z,91.90
2019-02-08T01:18:43.414Z,91.90
2019-02-08T01:21:12.776Z,91.90
2019-02-08T01:23:42.199Z,92.00
2019-02-08T01:26:11.563Z,92.00
2019-02-08T01:28:40.973Z,92.00
2019-02-08T01:31:10.359Z,92.00
2019-02-08T01:33:39.789Z,92.00
2019-02-08T01:36:09.183Z,91.90
2019-02-08T01:38:38.551Z,91.90
2019-02-08T01:41:07.949Z,91.90
2019-02-08T01:43:37.343Z,91.90
2019-02-08T01:46:06.711Z,91.90
2019-02-08T01:48:36.095Z,92.00
2019-02-08T01:51:05.703Z,92.00
2019-02-08T01:53:35.086Z,92.00
2019-02-08T01:56:04.566Z,92.00
2019-02-08T01:58:33.963Z,91.90
2019-02-08T02:01:03.443Z,91.90
2019-02-08T02:03:32.859Z,91.80
2019-02-08T02:06:02.247Z,91.70
2019-02-08T02:08:31.751Z,91.70
2019-02-08T02:11:01.123Z,91.70
2019-02-08T02:13:30.559Z,91.70
2019-02-08T02:16:00.031Z,91.70
2019-02-08T02:18:29.449Z,91.60
2019-02-08T02:20:58.845Z,91.60
2019-02-08T02:23:28.252Z,91.50
2019-02-08T02:25:57.652Z,91.50
2019-02-08T02:28:27.026Z,91.50
2019-02-08T02:30:56.446Z,91.50
2019-02-08T02:33:25.839Z,91.40
2019-02-08T02:35:55.224Z,91.40
2019-02-08T02:38:24.644Z,91.40
2019-02-08T02:40:54.027Z,91.40
2019-02-08T02:43:23.419Z,91.40
2019-02-08T02:45:52.817Z,91.40
2019-02-08T02:48:22.240Z,91.40
2019-02-08T02:50:51.627Z,91.50
2019-02-08T02:53:21.102Z,91.50
2019-02-08T02:55:50.471Z,91.50
2019-02-08T02:58:19.860Z,91.50
2019-02-08T03:00:49.401Z,91.60
2019-02-08T03:03:18.906Z,91.60
2019-02-08T03:05:48.249Z,91.60
2019-02-08T03:08:17.953Z,91.60
2019-02-08T03:10:47.343Z,91.70
2019-02-08T03:13:17.188Z,91.70
2019-02-08T03:15:46.719Z,91.70
2019-02-08T03:18:16.163Z,91.70
2019-02-08T03:20:45.565Z,91.70
2019-02-08T03:23:15.022Z,91.70
2019-02-08T03:25:44.437Z,91.70
2019-02-08T03:28:13.816Z,91.70
2019-02-08T03:30:47.504Z,91.80
2019-02-08T03:33:17.223Z,91.80
2019-02-08T03:35:46.615Z,91.70
2019-02-08T03:38:16.022Z,91.80
2019-02-08T03:40:45.419Z,91.80
2019-02-08T03:43:14.948Z,91.90
2019-02-08T03:45:44.744Z,91.80
2019-02-08T03:48:14.171Z,91.90
2019-02-08T03:50:43.647Z,91.90
2019-02-08T03:53:13.167Z,91.90
2019-02-08T03:55:42.631Z,92.00
2019-02-08T03:58:12.022Z,92.00
2019-02-08T04:00:55.231Z,92.10
2019-02-08T04:03:24.578Z,92.00
2019-02-08T04:05:53.988Z,92.00
2019-02-08T04:08:23.367Z,92.00
2019-02-08T04:10:52.861Z,92.00
2019-02-08T04:13:22.251Z,91.90
2019-02-08T04:15:51.715Z,92.00
2019-02-08T04:18:21.184Z,91.90
2019-02-08T04:20:50.529Z,91.90
2019-02-08T04:23:20.033Z,91.90
2019-02-08T04:25:49.413Z,91.90
2019-02-08T04:28:18.787Z,91.90
2019-02-08T04:30:48.203Z,91.80
2019-02-08T04:33:17.586Z,91.90
2019-02-08T04:35:46.957Z,91.90
2019-02-08T04:38:16.380Z,91.90
2019-02-08T04:40:45.756Z,91.90
2019-02-08T04:43:15.125Z,91.90
2019-02-08T04:45:44.543Z,91.90
2019-02-08T04:48:13.954Z,91.90
2019-02-08T04:50:43.374Z,91.90
2019-02-08T04:53:12.763Z,91.90
2019-02-08T04:55:42.133Z,91.90
2019-02-08T04:58:12.350Z,91.80
2019-02-08T05:00:41.755Z,91.80
2019-02-08T05:03:11.137Z,91.80
2019-02-08T05:05:40.571Z,91.80
2019-02-08T05:08:09.959Z,91.70
2019-02-08T05:10:39.279Z,91.60
2019-02-08T05:13:08.692Z,91.70
2019-02-08T05:15:38.115Z,91.70
2019-02-08T05:18:07.542Z,91.70
2019-02-08T05:20:37.077Z,91.60
2019-02-08T05:23:06.460Z,91.60
2019-02-08T05:25:35.863Z,91.60
2019-02-08T05:28:05.442Z,91.50
2019-02-08T05:30:35.645Z,91.50
2019-02-08T05:33:05.826Z,91.40
2019-02-08T05:35:35.228Z,91.40
2019-02-08T05:38:04.855Z,91.40
2019-02-08T05:40:34.341Z,91.40
2019-02-08T05:43:04.941Z,91.30
2019-02-08T05:45:34.319Z,91.20
2019-02-08T05:48:03.787Z,91.10
2019-02-08T05:50:33.169Z,91.10
2019-02-08T05:53:02.569Z,91.10
2019-02-08T05:55:32.109Z,91.10
2019-02-08T05:58:01.921Z,91.30
2019-02-08T06:00:41.938Z,91.10
2019-02-08T06:03:11.446Z,91.10
2019-02-08T06:05:41.334Z,91.20
2019-02-08T06:08:10.852Z,91.20
2019-02-08T06:10:40.223Z,91.20
2019-02-08T06:13:10.393Z,91.20
2019-02-08T06:15:40.320Z,91.10
2019-02-08T06:18:10.967Z,91.10
2019-02-08T06:20:41.343Z,91.00
2019-02-08T06:23:10.835Z,90.80
2019-02-08T06:25:40.319Z,90.70
2019-02-08T06:28:09.799Z,90.60
2019-02-08T06:30:39.208Z,90.50
2019-02-08T06:33:08.667Z,90.40
2019-02-08T06:35:38.389Z,90.30
2019-02-08T06:38:08.483Z,90.30
2019-02-08T06:40:41.586Z,90.20
2019-02-08T06:43:11.283Z,90.20
2019-02-08T06:45:40.693Z,90.20
2019-02-08T06:48:11.390Z,90.30
2019-02-08T06:50:40.769Z,90.20
2019-02-08T06:53:10.199Z,90.20
2019-02-08T06:55:39.571Z,90.20
2019-02-08T06:58:31.847Z,90.30
2019-02-08T07:01:20.184Z,90.30
2019-02-08T07:04:05.703Z,90.30
2019-02-08T07:06:56.835Z,90.30
2019-02-08T07:09:51.119Z,90.30
2019-02-08T07:12:38.995Z,90.20
2019-02-08T07:15:29.222Z,90.10
2019-02-08T07:18:22.215Z,90.10
2019-02-08T07:21:19.750Z,90.00
2019-02-08T07:24:08.106Z,89.70
2019-02-08T07:27:02.479Z,89.50
2019-02-08T07:29:48.995Z,88.90
2019-02-08T07:32:50.483Z,88.40
2019-02-08T07:35:48.727Z,87.70
2019-02-08T07:38:40.094Z,87.50
2019-02-08T07:41:37.247Z,87.10
2019-02-08T07:44:45.394Z,86.90
2019-02-08T07:47:45.670Z,86.60
2019-02-08T07:50:34.183Z,86.30
2019-02-08T07:53:11.775Z,85.80
2019-02-08T07:55:56.054Z,85.70
2019-02-08T07:58:37.083Z,85.50
2019-02-08T08:01:25.435Z,85.60
2019-02-08T08:04:20.041Z,84.70
2019-02-08T08:07:14.416Z,84.80
2019-02-08T08:10:01.771Z,84.90
2019-02-08T08:12:44.111Z,85.20
2019-02-08T08:15:37.950Z,85.00
2019-02-08T08:18:25.370Z,84.70
2019-02-08T08:21:07.613Z,84.90
2019-02-08T08:23:51.172Z,84.80
2019-02-08T08:26:28.521Z,84.60
2019-02-08T08:29:08.427Z,84.70
2019-02-08T08:32:01.128Z,85.10
2019-02-08T08:35:00.230Z,85.00
2019-02-08T08:37:44.011Z,84.60
2019-02-08T08:40:49.719Z,84.50
2019-02-08T08:43:44.432Z,84.10
2019-02-08T08:46:49.208Z,84.10
2019-02-08T08:50:06.308Z,83.50
2019-02-08T08:53:03.312Z,83.50
2019-02-08T08:56:19.820Z,83.20
2019-02-08T08:59:26.736Z,82.80
2019-02-08T09:02:19.517Z,82.30
2019-02-08T09:05:25.344Z,82.40
2019-02-08T09:08:51.819Z,81.40
2019-02-08T09:11:33.559Z,81.70
2019-02-08T09:14:37.232Z,81.30
2019-02-08T09:17:44.959Z,81.30
2019-02-08T09:21:03.080Z,81.30
2019-02-08T09:24:08.679Z,81.20
2019-02-08T09:27:04.597Z,80.40
2019-02-08T09:30:13.561Z,80.40
2019-02-08T09:33:22.226Z,80.20
2019-02-08T09:36:38.247Z,80.00
2019-02-08T09:40:02.432Z,79.90
2019-02-08T09:42:54.987Z,79.30
2019-02-08T09:46:06.995Z,79.40
2019-02-08T09:49:04.058Z,79.10
2019-02-08T09:52:16.468Z,78.80
2019-02-08T09:55:15.063Z,78.30
2019-02-08T09:58:26.772Z,77.50
2019-02-08T10:01:42.337Z,76.60
2019-02-08T10:04:50.453Z,76.90
2019-02-08T10:07:48.287Z,76.60
2019-02-08T10:11:12.145Z,76.50
2019-02-08T10:14:11.190Z,75.80
2019-02-08T10:17:15.886Z,75.80
2019-02-08T10:20:19.413Z,75.30
2019-02-08T10:23:20.291Z,74.50
2019-02-08T10:26:48.811Z,73.90
2019-02-08T10:30:02.051Z,73.30
2019-02-08T10:33:11.135Z,73.20
2019-02-08T10:36:33.506Z,72.80
2019-02-08T10:39:41.076Z,72.70
2019-02-08T10:42:46.065Z,72.10
2019-02-08T10:46:02.899Z,71.20
2019-02-08T10:49:37.099Z,71.10
2019-02-08T10:52:56.407Z,70.90
2019-02-08T10:56:14.669Z,70.20
2019-02-08T10:59:21.979Z,69.70
2019-02-08T11:02:56.261Z,69.80
2019-02-08T11:06:02.007Z,69.80
2019-02-08T11:09:14.155Z,69.20
2019-02-08T11:12:18.756Z,69.60
2019-02-08T11:15:21.289Z,68.90
2019-02-08T11:18:34.075Z,67.90
2019-02-08T11:21:03.643Z,67.30
2019-02-08T11:23:33.118Z,67.80
2019-02-08T11:26:02.783Z,67.30
2019-02-08T11:28:32.269Z,66.70
2019-02-08T11:31:01.643Z,66.20
2019-02-08T11:33:31.072Z,65.50
2019-02-08T11:36:00.447Z,65.00
2019-02-08T11:38:29.851Z,64.70
2019-02-08T11:40:59.151Z,65.20
2019-02-08T11:43:28.563Z,64.70
2019-02-08T11:45:57.955Z,64.50
2019-02-08T11:48:27.335Z,64.00
2019-02-08T11:50:56.739Z,64.10
2019-02-08T11:53:27.315Z,63.90
2019-02-08T11:55:56.756Z,63.50
2019-02-08T11:58:26.087Z,62.80
2019-02-08T12:00:56.947Z,62.90
2019-02-08T12:03:26.328Z,63.20
2019-02-08T12:05:55.895Z,62.00
2019-02-08T12:08:25.308Z,61.80
2019-02-08T12:10:54.690Z,61.30
2019-02-08T12:13:24.120Z,61.00
2019-02-08T12:15:53.836Z,61.20
2019-02-08T12:18:23.212Z,60.10
2019-02-08T12:20:52.607Z,60.00
2019-02-08T12:23:22.167Z,59.40
2019-02-08T12:25:51.693Z,59.20
2019-02-08T12:28:21.058Z,59.60
2019-02-08T12:30:50.448Z,59.30
2019-02-08T12:33:19.897Z,58.70
2019-02-08T12:35:49.275Z,58.40
2019-02-08T12:38:18.644Z,58.00
2019-02-08T12:40:48.047Z,57.60
2019-02-08T12:43:17.427Z,57.50
2019-02-08T12:45:46.847Z,57.70
2019-02-08T12:48:16.244Z,57.30
2019-02-08T12:50:45.615Z,58.00
2019-02-08T12:53:15.018Z,58.00
2019-02-08T12:55:44.384Z,57.60
2019-02-08T12:58:13.779Z,57.00
2019-02-08T13:00:43.156Z,57.60
2019-02-08T13:03:12.543Z,57.70
2019-02-08T13:05:41.941Z,57.00
2019-02-08T13:08:11.311Z,57.50
2019-02-08T13:10:40.787Z,57.60
2019-02-08T13:13:10.450Z,57.00
2019-02-08T13:15:39.827Z,56.90
2019-02-08T13:18:09.234Z,56.90
2019-02-08T13:20:40.172Z,56.80
2019-02-08T13:23:09.588Z,57.00
2019-02-08T13:25:38.996Z,57.20
2019-02-08T13:28:08.375Z,57.10
2019-02-08T13:30:37.771Z,56.80
2019-02-08T13:33:07.138Z,56.30
2019-02-08T13:35:36.511Z,56.90
2019-02-08T13:38:05.923Z,56.90
2019-02-08T13:40:35.329Z,56.50
2019-02-08T13:43:04.723Z,56.60
2019-02-08T13:45:34.027Z,56.40
2019-02-08T13:48:03.452Z,56.70
2019-02-08T13:50:32.831Z,56.80
2019-02-08T13:53:02.256Z,56.70
2019-02-08T13:55:31.659Z,56.50
2019-02-08T13:58:01.027Z,56.50
2019-02-08T14:00:33.821Z,56.50
2019-02-08T14:03:03.359Z,56.00
2019-02-08T14:05:32.957Z,56.00
2019-02-08T14:08:02.327Z,56.30
2019-02-08T14:10:31.687Z,56.50
2019-02-08T14:13:01.110Z,56.20
2019-02-08T14:15:30.480Z,56.40
2019-02-08T14:17:59.890Z,56.50
2019-02-08T14:20:29.404Z,56.50
2019-02-08T14:22:58.877Z,55.80
2019-02-08T14:25:28.368Z,55.70
2019-02-08T14:27:57.842Z,55.80
2019-02-08T14:30:30.083Z,56.40
2019-02-08T14:32:59.468Z,56.20
2019-02-08T14:35:29.297Z,56.40
2019-02-08T14:37:59.763Z,56.50
2019-02-08T14:40:29.328Z,56.60
2019-02-08T14:42:58.731Z,56.80
2019-02-08T14:45:28.151Z,56.80
2019-02-08T14:47:57.603Z,56.70
2019-02-08T14:50:27.237Z,56.80
2019-02-08T14:52:56.907Z,56.70
2019-02-08T14:55:26.324Z,56.70
2019-02-08T14:57:56.261Z,56.50
2019-02-08T15:00:25.958Z,56.20
2019-02-08T15:02:55.321Z,56.80
2019-02-08T15:05:25.061Z,56.90
2019-02-08T15:07:54.438Z,57.10
2019-02-08T15:10:38.491Z,57.10
2019-02-08T15:13:07.946Z,57.30
2019-02-08T15:15:37.345Z,57.30
2019-02-08T15:18:07.119Z,57.80
2019-02-08T15:20:37.013Z,57.30
2019-02-08T15:23:06.740Z,57.30
2019-02-08T15:25:36.240Z,57.20
2019-02-08T15:28:05.629Z,57.40
2019-02-08T15:30:35.345Z,57.60
2019-02-08T15:33:05.131Z,58.00
2019-02-08T15:35:35.431Z,57.40
2019-02-08T15:38:05.415Z,57.30
2019-02-08T15:40:37.636Z,57.40
2019-02-08T15:43:07.331Z,57.40
2019-02-08T15:45:36.750Z,57.50
2019-02-08T15:48:06.155Z,57.50
2019-02-08T15:50:35.523Z,57.70
2019-02-08T15:53:04.931Z,57.80
2019-02-08T15:55:35.907Z,57.90
2019-02-08T15:58:05.477Z,58.10
2019-02-08T16:00:34.981Z,58.50
2019-02-08T16:03:05.249Z,58.70
2019-02-08T16:05:34.626Z,58.90
2019-02-08T16:08:04.305Z,59.20
2019-02-08T16:10:33.688Z,59.40
2019-02-08T16:13:03.131Z,59.70
2019-02-08T16:15:32.601Z,59.90
2019-02-08T16:18:02.015Z,60.10
2019-02-08T16:20:31.490Z,60.30
2019-02-08T16:23:01.141Z,60.60
2019-02-08T16:25:30.913Z,60.70
2019-02-08T16:28:00.384Z,60.80
2019-02-08T16:30:30.887Z,61.00
2019-02-08T16:33:00.496Z,61.30
2019-02-08T16:35:30.236Z,61.90
2019-02-08T16:37:59.762Z,62.40
2019-02-08T16:40:29.410Z,62.60
2019-02-08T16:43:00.295Z,62.40
2019-02-08T16:45:31.722Z,62.70
2019-02-08T16:48:01.909Z,63.00
2019-02-08T16:50:31.974Z,63.30
2019-02-08T16:53:01.419Z,63.30
2019-02-08T16:55:30.982Z,63.60
2019-02-08T16:58:00.356Z,63.70
2019-02-08T17:00:31.817Z,63.70
2019-02-08T17:03:02.666Z,63.60
2019-02-08T17:05:33.901Z,63.50
2019-02-08T17:08:04.245Z,63.40
2019-02-08T17:10:34.677Z,63.60
2019-02-08T17:13:05.274Z,63.80
2019-02-08T17:15:36.601Z,64.20
2019-02-08T17:18:07.524Z,64.60
2019-02-08T17:20:44.048Z,64.80
2019-02-08T17:23:14.440Z,64.90
2019-02-08T17:25:44.696Z,64.90
2019-02-08T17:28:14.680Z,65.00
2019-02-08T17:30:45.032Z,65.10
2019-02-08T17:33:15.106Z,65.30
2019-02-08T17:35:47.591Z,65.60
2019-02-08T17:38:18.991Z,66.10
2019-02-08T17:40:50.375Z,66.30
2019-02-08T17:43:21.348Z,66.60
2019-02-08T17:45:52.235Z,67.10
2019-02-08T17:48:23.060Z,67.30
2019-02-08T17:50:53.384Z,67.40
2019-02-08T17:53:23.033Z,67.40
2019-02-08T17:55:53.131Z,67.70
2019-02-08T17:58:22.514Z,67.90
2019-02-08T18:00:54.766Z,68.20
2019-02-08T18:03:24.293Z,68.40
2019-02-08T18:05:53.684Z,68.70
2019-02-08T18:08:23.067Z,68.90
2019-02-08T18:10:53.160Z,69.80
2019-02-08T18:13:22.542Z,69.40
2019-02-08T18:15:51.940Z,69.70
2019-02-08T18:18:25.911Z,70.10
2019-02-08T18:21:01.404Z,70.30
2019-02-08T18:23:30.817Z,70.50
2019-02-08T18:26:00.299Z,70.70
2019-02-08T18:28:29.742Z,70.60
2019-02-08T18:30:59.194Z,70.40
2019-02-08T18:33:28.664Z,70.30
2019-02-08T18:35:58.025Z,70.10
2019-02-08T18:38:27.435Z,69.90
2019-02-08T18:40:56.815Z,69.60
2019-02-08T18:43:26.215Z,69.50
2019-02-08T18:45:55.616Z,69.40
2019-02-08T18:48:25.032Z,69.30
2019-02-08T18:50:54.856Z,69.30
2019-02-08T18:53:24.261Z,69.30
2019-02-08T18:55:53.719Z,69.40
2019-02-08T18:58:23.149Z,69.50
2019-02-08T19:00:52.913Z,69.60
2019-02-08T19:03:23.675Z,69.50
2019-02-08T19:05:53.064Z,69.40
2019-02-08T19:08:22.471Z,69.50
2019-02-08T19:10:51.870Z,69.50
2019-02-08T19:13:21.296Z,69.70
2019-02-08T19:15:50.693Z,69.70
2019-02-08T19:18:20.091Z,69.70
2019-02-08T19:20:49.490Z,69.80
2019-02-08T19:23:18.884Z,69.90
2019-02-08T19:25:48.328Z,70.00
2019-02-08T19:28:18.097Z,70.00
2019-02-08T19:30:47.514Z,69.90
2019-02-08T19:33:16.894Z,69.90
2019-02-08T19:35:46.346Z,70.00
2019-02-08T19:38:15.737Z,70.20
2019-02-08T19:40:46.015Z,70.20
2019-02-08T19:43:15.455Z,70.40
2019-02-08T19:45:44.847Z,70.30
2019-02-08T19:48:14.254Z,70.20
2019-02-08T19:50:44.950Z,70.20
2019-02-08T19:53:14.388Z,70.40
2019-02-08T19:55:43.916Z,70.60
2019-02-08T19:58:13.435Z,70.80
2019-02-08T20:00:43.244Z,71.00
2019-02-08T20:03:12.767Z,71.20
2019-02-08T20:05:42.419Z,71.50
2019-02-08T20:08:13.413Z,71.40
2019-02-08T20:10:44.623Z,71.30
2019-02-08T20:13:14.119Z,71.20
2019-02-08T20:15:43.711Z,71.00
2019-02-08T20:18:13.968Z,70.80
2019-02-08T20:20:43.888Z,70.70
2019-02-08T20:23:13.257Z,70.90
2019-02-08T20:25:42.717Z,70.90
2019-02-08T20:28:12.190Z,70.80
2019-02-08T20:30:41.619Z,70.80
2019-02-08T20:33:11.251Z,70.80
2019-02-08T20:35:40.720Z,71.10
2019-02-08T20:38:10.600Z,71.00
2019-02-08T20:40:45.440Z,71.10
2019-02-08T20:43:15.189Z,71.30
2019-02-08T20:45:44.577Z,71.20
2019-02-08T20:48:19.608Z,71.30
2019-02-08T20:50:49.230Z,71.50
2019-02-08T20:53:18.732Z,71.50
2019-02-08T20:55:48.135Z,71.50
2019-02-08T20:58:17.527Z,71.50
2019-02-08T21:00:49.188Z,71.50
2019-02-08T21:03:19.255Z,71.50
2019-02-08T21:05:49.191Z,71.50
2019-02-08T21:08:19.947Z,71.50
2019-02-08T21:10:49.462Z,71.60
2019-02-08T21:13:19.001Z,71.60
2019-02-08T21:15:48.386Z,71.60
2019-02-08T21:18:17.770Z,71.50
2019-02-08T21:20:48.305Z,71.50
2019-02-08T21:23:18.002Z,71.50
2019-02-08T21:25:52.352Z,71.50
2019-02-08T21:28:18.848Z,71.50
2019-02-08T21:30:48.251Z,71.50
2019-02-08T21:33:17.637Z,71.50
2019-02-08T21:35:47.055Z,71.70
2019-02-08T21:38:16.803Z,71.80
2019-02-08T21:40:46.253Z,71.80
2019-02-08T21:43:15.639Z,71.90
2019-02-08T21:45:45.751Z,72.00
2019-02-08T21:48:15.487Z,72.10
2019-02-08T21:50:44.965Z,72.30
2019-02-08T21:53:14.376Z,72.30
2019-02-08T21:55:43.744Z,72.40
2019-02-08T21:58:13.154Z,72.40
2019-02-08T22:00:43.315Z,72.40
2019-02-08T22:03:12.851Z,72.50
2019-02-08T22:05:51.108Z,72.60
2019-02-08T22:08:20.496Z,72.70
2019-02-08T22:10:49.919Z,72.80
2019-02-08T22:13:19.312Z,72.80
2019-02-08T22:15:48.742Z,73.00
2019-02-08T22:18:18.120Z,73.00
2019-02-08T22:20:47.689Z,73.20
2019-02-08T22:23:17.401Z,73.30
2019-02-08T22:25:46.831Z,73.20
2019-02-08T22:28:16.257Z,73.30
2019-02-08T22:30:45.656Z,73.40
2019-02-08T22:33:15.424Z,73.40
2019-02-08T22:35:44.798Z,73.50
2019-02-08T22:38:14.175Z,73.60
2019-02-08T22:40:43.584Z,73.70
2019-02-08T22:43:12.973Z,73.70
2019-02-08T22:45:42.564Z,73.80
2019-02-08T22:48:11.940Z,73.90
2019-02-08T22:50:41.421Z,73.90
2019-02-08T22:53:10.877Z,73.90
2019-02-08T22:55:40.275Z,74.30
2019-02-08T22:58:09.958Z,74.40
2019-02-08T23:01:24.144Z,74.60
2019-02-08T23:03:54.696Z,74.70
2019-02-08T23:06:24.232Z,74.80
2019-02-08T23:08:53.783Z,75.00
2019-02-08T23:11:23.685Z,75.10
2019-02-08T23:13:53.451Z,75.90
2019-02-08T23:16:23.044Z,75.40
2019-02-08T23:18:52.420Z,75.60
2019-02-08T23:21:21.858Z,75.60
2019-02-08T23:23:51.230Z,75.80
2019-02-08T23:26:20.644Z,75.90
2019-02-08T23:28:50.048Z,75.90
2019-02-08T23:31:19.451Z,76.00
2019-02-08T23:33:48.847Z,76.00
2019-02-08T23:36:18.331Z,76.00
2019-02-08T23:38:47.727Z,76.10
2019-02-08T23:41:17.125Z,76.00
2019-02-08T23:43:46.623Z,76.10
2019-02-08T23:46:16.201Z,76.10
2019-02-08T23:48:45.718Z,76.00
2019-02-08T23:51:15.156Z,75.80
2019-02-08T23:53:44.593Z,75.80
2019-02-08T23:56:14.016Z,75.70
2019-02-08T23:58:43.498Z,75.90
